sensor_id;sensor_type;location;lat;lon;timestamp;pressure;altitude;pressure_sealevel;temperature;humidity
54248;BME280;40161;39.768;2.722;2023-02-22T00:00:37;101457.66;;;9.13;100.00
54248;BME280;40161;39.768;2.722;2023-02-22T00:03:09;101454.91;;;9.13;100.00
54248;BME280;40161;39.768;2.722;2023-02-22T00:05:36;101445.97;;;9.03;100.00
54248;BME280;40161;39.768;2.722;2023-02-22T00:08:04;101462.09;;;9.17;100.00
54248;BME280;40161;39.768;2.722;2023-02-22T00:10:34;101453.94;;;9.30;100.00
54248;BME280;40161;39.768;2.722;2023-02-22T00:13:03;101438.25;;;9.18;100.00
54248;BME280;40161;39.768;2.722;2023-02-22T00:15:30;101455.88;;;9.41;100.00
54248;BME280;40161;39.768;2.722;2023-02-22T00:17:55;101462.31;;;9.58;100.00
54248;BME280;40161;39.768;2.722;2023-02-22T00:20:22;101453.94;;;9.42;100.00
54248;BME280;40161;39.768;2.722;2023-02-22T00:22:48;101424.81;;;9.37;100.00
54248;BME280;40161;39.768;2.722;2023-02-22T00:25:21;101458.63;;;9.41;100.00
54248;BME280;40161;39.768;2.722;2023-02-22T00:27:48;101452.19;;;9.25;100.00
54248;BME280;40161;39.768;2.722;2023-02-22T00:30:17;101443.06;;;9.21;100.00
54248;BME280;40161;39.768;2.722;2023-02-22T00:32:45;101403.88;;;8.96;100.00
54248;BME280;40161;39.768;2.722;2023-02-22T00:35:12;101447.72;;;9.20;100.00
54248;BME280;40161;39.768;2.722;2023-02-22T00:37:38;101456.88;;;9.24;100.00
54248;BME280;40161;39.768;2.722;2023-02-22T00:40:11;101448.09;;;9.19;100.00
54248;BME280;40161;39.768;2.722;2023-02-22T00:42:38;101442.50;;;9.15;100.00
54248;BME280;40161;39.768;2.722;2023-02-22T00:45:04;101470.91;;;9.23;100.00
54248;BME280;40161;39.768;2.722;2023-02-22T00:47:31;101465.69;;;8.97;100.00
54248;BME280;40161;39.768;2.722;2023-02-22T00:49:57;101480.69;;;9.12;100.00
54248;BME280;40161;39.768;2.722;2023-02-22T00:52:23;101485.53;;;9.39;100.00
54248;BME280;40161;39.768;2.722;2023-02-22T00:54:48;101483.06;;;9.59;100.00
54248;BME280;40161;39.768;2.722;2023-02-22T00:57:14;101487.88;;;9.62;100.00
54248;BME280;40161;39.768;2.722;2023-02-22T00:59:39;101495.31;;;9.61;100.00
54248;BME280;40161;39.768;2.722;2023-02-22T01:02:05;101478.94;;;9.40;100.00
54248;BME280;40161;39.768;2.722;2023-02-22T01:04:30;101488.88;;;9.45;100.00
54248;BME280;40161;39.768;2.722;2023-02-22T01:06:56;101436.91;;;9.24;100.00
54248;BME280;40161;39.768;2.722;2023-02-22T01:09:22;101492.75;;;9.44;100.00
54248;BME280;40161;39.768;2.722;2023-02-22T01:11:52;101493.38;;;9.16;100.00
54248;BME280;40161;39.768;2.722;2023-02-22T01:14:20;101496.84;;;9.04;100.00
54248;BME280;40161;39.768;2.722;2023-02-22T01:16:49;101485.22;;;9.08;100.00
54248;BME280;40161;39.768;2.722;2023-02-22T01:19:15;101463.56;;;9.02;100.00
54248;BME280;40161;39.768;2.722;2023-02-22T01:21:41;101473.78;;;9.26;100.00
54248;BME280;40161;39.768;2.722;2023-02-22T01:24:06;101474.72;;;9.55;100.00
54248;BME280;40161;39.768;2.722;2023-02-22T01:26:32;101472.56;;;9.48;100.00
54248;BME280;40161;39.768;2.722;2023-02-22T01:28:57;101472.75;;;9.31;100.00
54248;BME280;40161;39.768;2.722;2023-02-22T01:31:23;101466.72;;;9.04;100.00
54248;BME280;40161;39.768;2.722;2023-02-22T01:33:49;101457.81;;;8.95;100.00
54248;BME280;40161;39.768;2.722;2023-02-22T01:36:18;101435.44;;;8.81;100.00
54248;BME280;40161;39.768;2.722;2023-02-22T01:38:44;101449.50;;;9.04;100.00
54248;BME280;40161;39.768;2.722;2023-02-22T01:41:10;101451.19;;;9.30;100.00
54248;BME280;40161;39.768;2.722;2023-02-22T01:43:36;101450.84;;;9.31;100.00
54248;BME280;40161;39.768;2.722;2023-02-22T01:46:19;101441.91;;;9.22;100.00
54248;BME280;40161;39.768;2.722;2023-02-22T01:49:02;101435.75;;;9.13;100.00
54248;BME280;40161;39.768;2.722;2023-02-22T01:51:47;101428.38;;;8.92;100.00
54248;BME280;40161;39.768;2.722;2023-02-22T01:54:20;101419.31;;;9.13;100.00
54248;BME280;40161;39.768;2.722;2023-02-22T01:56:49;101400.75;;;8.85;100.00
54248;BME280;40161;39.768;2.722;2023-02-22T01:59:19;101394.81;;;8.83;100.00
54248;BME280;40161;39.768;2.722;2023-02-22T02:01:46;101367.88;;;8.73;100.00
54248;BME280;40161;39.768;2.722;2023-02-22T02:04:17;101406.59;;;8.96;100.00
54248;BME280;40161;39.768;2.722;2023-02-22T02:06:44;101412.06;;;8.63;100.00
54248;BME280;40161;39.768;2.722;2023-02-22T02:09:18;101409.47;;;8.66;100.00
54248;BME280;40161;39.768;2.722;2023-02-22T02:11:44;101391.53;;;8.56;100.00
54248;BME280;40161;39.768;2.722;2023-02-22T02:14:11;101412.34;;;8.49;100.00
54248;BME280;40161;39.768;2.722;2023-02-22T02:16:41;101409.88;;;8.56;100.00
54248;BME280;40161;39.768;2.722;2023-02-22T02:19:24;101386.00;;;8.44;100.00
54248;BME280;40161;39.768;2.722;2023-02-22T02:22:23;101383.00;;;8.58;100.00
54248;BME280;40161;39.768;2.722;2023-02-22T02:25:11;101382.34;;;8.73;100.00
54248;BME280;40161;39.768;2.722;2023-02-22T02:27:52;101389.09;;;8.76;100.00
54248;BME280;40161;39.768;2.722;2023-02-22T02:33:17;101379.03;;;8.68;100.00
54248;BME280;40161;39.768;2.722;2023-02-22T02:39:00;101374.59;;;8.42;100.00
54248;BME280;40161;39.768;2.722;2023-02-22T02:41:36;101344.56;;;8.33;100.00
54248;BME280;40161;39.768;2.722;2023-02-22T02:44:12;101367.78;;;8.48;100.00
54248;BME280;40161;39.768;2.722;2023-02-22T02:49:22;101348.72;;;8.73;100.00
54248;BME280;40161;39.768;2.722;2023-02-22T02:51:51;101350.78;;;8.76;100.00
54248;BME280;40161;39.768;2.722;2023-02-22T02:54:18;101339.34;;;8.74;100.00
54248;BME280;40161;39.768;2.722;2023-02-22T02:56:45;101334.72;;;8.74;100.00
54248;BME280;40161;39.768;2.722;2023-02-22T02:59:29;101331.75;;;8.46;100.00
54248;BME280;40161;39.768;2.722;2023-02-22T03:18:57;101338.50;;;8.28;100.00
54248;BME280;40161;39.768;2.722;2023-02-22T03:23:59;101351.13;;;8.41;100.00
54248;BME280;40161;39.768;2.722;2023-02-22T03:26:45;101344.66;;;8.04;100.00
54248;BME280;40161;39.768;2.722;2023-02-22T03:29:16;101347.66;;;8.11;100.00
54248;BME280;40161;39.768;2.722;2023-02-22T03:31:50;101340.63;;;8.22;100.00
54248;BME280;40161;39.768;2.722;2023-02-22T03:34:24;101344.81;;;8.62;100.00
54248;BME280;40161;39.768;2.722;2023-02-22T03:37:04;101336.22;;;8.51;100.00
54248;BME280;40161;39.768;2.722;2023-02-22T03:39:34;101336.25;;;8.63;100.00
54248;BME280;40161;39.768;2.722;2023-02-22T03:42:17;101340.38;;;8.57;100.00
54248;BME280;40161;39.768;2.722;2023-02-22T03:44:46;101343.28;;;8.40;100.00
54248;BME280;40161;39.768;2.722;2023-02-22T03:47:20;101333.13;;;7.98;100.00
54248;BME280;40161;39.768;2.722;2023-02-22T03:50:17;101325.63;;;8.49;100.00
54248;BME280;40161;39.768;2.722;2023-02-22T03:52:45;101318.00;;;8.55;100.00
54248;BME280;40161;39.768;2.722;2023-02-22T03:55:12;101325.28;;;8.51;100.00
54248;BME280;40161;39.768;2.722;2023-02-22T03:57:45;101325.09;;;8.14;100.00
54248;BME280;40161;39.768;2.722;2023-02-22T04:00:17;101321.56;;;8.14;100.00
54248;BME280;40161;39.768;2.722;2023-02-22T04:02:43;101307.75;;;8.31;100.00
54248;BME280;40161;39.768;2.722;2023-02-22T04:05:09;101310.22;;;8.45;100.00
54248;BME280;40161;39.768;2.722;2023-02-22T04:07:35;101300.75;;;8.42;100.00
54248;BME280;40161;39.768;2.722;2023-02-22T04:10:01;101294.41;;;8.50;100.00
54248;BME280;40161;39.768;2.722;2023-02-22T04:12:27;101283.78;;;7.95;100.00
54248;BME280;40161;39.768;2.722;2023-02-22T04:14:53;101288.78;;;7.93;100.00
54248;BME280;40161;39.768;2.722;2023-02-22T04:17:19;101289.72;;;7.97;100.00
54248;BME280;40161;39.768;2.722;2023-02-22T04:19:44;101294.78;;;8.07;100.00
54248;BME280;40161;39.768;2.722;2023-02-22T04:22:10;101271.13;;;7.90;100.00
54248;BME280;40161;39.768;2.722;2023-02-22T04:24:36;101292.25;;;7.81;100.00
54248;BME280;40161;39.768;2.722;2023-02-22T04:27:01;101303.47;;;7.88;100.00
54248;BME280;40161;39.768;2.722;2023-02-22T04:29:28;101275.72;;;7.56;100.00
54248;BME280;40161;39.768;2.722;2023-02-22T04:31:54;101290.72;;;7.71;100.00
54248;BME280;40161;39.768;2.722;2023-02-22T04:34:20;101297.53;;;7.65;100.00
54248;BME280;40161;39.768;2.722;2023-02-22T04:36:46;101309.91;;;7.63;100.00
54248;BME280;40161;39.768;2.722;2023-02-22T04:39:11;101300.25;;;7.86;100.00
54248;BME280;40161;39.768;2.722;2023-02-22T04:41:37;101312.91;;;8.12;100.00
54248;BME280;40161;39.768;2.722;2023-02-22T04:44:03;101307.38;;;8.20;100.00
54248;BME280;40161;39.768;2.722;2023-02-22T04:46:28;101322.63;;;8.42;100.00
54248;BME280;40161;39.768;2.722;2023-02-22T04:48:55;101327.78;;;8.44;100.00
54248;BME280;40161;39.768;2.722;2023-02-22T04:51:22;101320.25;;;8.41;100.00
54248;BME280;40161;39.768;2.722;2023-02-22T04:53:48;101318.31;;;8.20;100.00
54248;BME280;40161;39.768;2.722;2023-02-22T04:56:16;101326.22;;;8.34;100.00
54248;BME280;40161;39.768;2.722;2023-02-22T04:58:42;101310.84;;;8.29;100.00
54248;BME280;40161;39.768;2.722;2023-02-22T05:01:08;101324.31;;;8.14;100.00
54248;BME280;40161;39.768;2.722;2023-02-22T05:03:36;101320.44;;;7.94;100.00
54248;BME280;40161;39.768;2.722;2023-02-22T05:06:02;101313.19;;;7.77;100.00
54248;BME280;40161;39.768;2.722;2023-02-22T05:08:27;101320.84;;;7.83;100.00
54248;BME280;40161;39.768;2.722;2023-02-22T05:10:54;101290.78;;;7.63;100.00
54248;BME280;40161;39.768;2.722;2023-02-22T05:13:19;101286.06;;;7.72;100.00
54248;BME280;40161;39.768;2.722;2023-02-22T05:15:45;101311.59;;;7.76;100.00
54248;BME280;40161;39.768;2.722;2023-02-22T05:18:12;101315.38;;;7.83;100.00
54248;BME280;40161;39.768;2.722;2023-02-22T05:20:38;101303.25;;;7.93;100.00
54248;BME280;40161;39.768;2.722;2023-02-22T05:23:04;101291.78;;;7.79;100.00
54248;BME280;40161;39.768;2.722;2023-02-22T05:25:30;101309.34;;;7.78;100.00
54248;BME280;40161;39.768;2.722;2023-02-22T05:28:00;101277.78;;;7.59;100.00
54248;BME280;40161;39.768;2.722;2023-02-22T05:30:33;101277.78;;;7.80;100.00
54248;BME280;40161;39.768;2.722;2023-02-22T05:32:59;101294.16;;;8.22;100.00
54248;BME280;40161;39.768;2.722;2023-02-22T05:35:26;101280.56;;;8.14;100.00
54248;BME280;40161;39.768;2.722;2023-02-22T05:37:53;101272.44;;;7.63;100.00
54248;BME280;40161;39.768;2.722;2023-02-22T05:40:20;101265.84;;;7.43;100.00
54248;BME280;40161;39.768;2.722;2023-02-22T05:42:47;101276.09;;;7.46;100.00
54248;BME280;40161;39.768;2.722;2023-02-22T05:45:13;101268.13;;;7.41;100.00
54248;BME280;40161;39.768;2.722;2023-02-22T05:47:40;101284.03;;;7.39;100.00
54248;BME280;40161;39.768;2.722;2023-02-22T05:50:06;101293.13;;;7.43;100.00
54248;BME280;40161;39.768;2.722;2023-02-22T05:52:32;101294.69;;;7.53;100.00
54248;BME280;40161;39.768;2.722;2023-02-22T05:54:57;101279.19;;;7.45;100.00
54248;BME280;40161;39.768;2.722;2023-02-22T05:57:23;101293.38;;;7.59;100.00
54248;BME280;40161;39.768;2.722;2023-02-22T05:59:49;101294.78;;;7.65;100.00
54248;BME280;40161;39.768;2.722;2023-02-22T06:02:14;101307.31;;;7.87;100.00
54248;BME280;40161;39.768;2.722;2023-02-22T06:04:43;101297.78;;;7.93;100.00
54248;BME280;40161;39.768;2.722;2023-02-22T06:07:09;101311.50;;;8.26;100.00
54248;BME280;40161;39.768;2.722;2023-02-22T06:09:35;101306.19;;;8.09;100.00
54248;BME280;40161;39.768;2.722;2023-02-22T06:12:00;101329.66;;;8.10;100.00
54248;BME280;40161;39.768;2.722;2023-02-22T06:14:26;101317.78;;;7.85;100.00
54248;BME280;40161;39.768;2.722;2023-02-22T06:16:53;101306.88;;;7.85;100.00
54248;BME280;40161;39.768;2.722;2023-02-22T06:19:18;101320.97;;;7.87;100.00
54248;BME280;40161;39.768;2.722;2023-02-22T06:21:49;101332.91;;;7.61;100.00
54248;BME280;40161;39.768;2.722;2023-02-22T06:24:14;101334.56;;;7.54;100.00
54248;BME280;40161;39.768;2.722;2023-02-22T06:26:41;101324.50;;;7.67;100.00
54248;BME280;40161;39.768;2.722;2023-02-22T06:29:06;101329.75;;;7.51;100.00
54248;BME280;40161;39.768;2.722;2023-02-22T06:31:33;101328.66;;;7.43;100.00
54248;BME280;40161;39.768;2.722;2023-02-22T06:33:58;101352.25;;;7.48;100.00
54248;BME280;40161;39.768;2.722;2023-02-22T06:36:24;101321.69;;;7.54;100.00
54248;BME280;40161;39.768;2.722;2023-02-22T06:38:49;101340.28;;;7.61;100.00
54248;BME280;40161;39.768;2.722;2023-02-22T06:41:15;101342.38;;;7.64;100.00
54248;BME280;40161;39.768;2.722;2023-02-22T06:43:40;101341.50;;;7.93;100.00
54248;BME280;40161;39.768;2.722;2023-02-22T06:46:10;101351.38;;;7.85;100.00
54248;BME280;40161;39.768;2.722;2023-02-22T06:48:36;101365.75;;;7.74;100.00
54248;BME280;40161;39.768;2.722;2023-02-22T06:51:03;101346.63;;;7.74;100.00
54248;BME280;40161;39.768;2.722;2023-02-22T06:53:29;101354.31;;;8.01;100.00
54248;BME280;40161;39.768;2.722;2023-02-22T06:55:54;101352.31;;;8.11;100.00
54248;BME280;40161;39.768;2.722;2023-02-22T06:58:20;101335.03;;;7.98;100.00
54248;BME280;40161;39.768;2.722;2023-02-22T07:00:45;101329.91;;;7.96;100.00
54248;BME280;40161;39.768;2.722;2023-02-22T07:03:11;101332.31;;;7.98;100.00
54248;BME280;40161;39.768;2.722;2023-02-22T07:05:38;101362.63;;;8.05;100.00
54248;BME280;40161;39.768;2.722;2023-02-22T07:08:05;101355.97;;;7.94;100.00
54248;BME280;40161;39.768;2.722;2023-02-22T07:10:33;101353.81;;;7.57;100.00
54248;BME280;40161;39.768;2.722;2023-02-22T07:12:59;101366.34;;;7.58;100.00
54248;BME280;40161;39.768;2.722;2023-02-22T07:15:26;101376.94;;;7.81;100.00
54248;BME280;40161;39.768;2.722;2023-02-22T07:17:52;101376.63;;;7.82;100.00
54248;BME280;40161;39.768;2.722;2023-02-22T07:20:19;101368.47;;;7.74;100.00
54248;BME280;40161;39.768;2.722;2023-02-22T07:22:46;101389.25;;;7.96;100.00
54248;BME280;40161;39.768;2.722;2023-02-22T07:25:12;101377.78;;;8.23;100.00
54248;BME280;40161;39.768;2.722;2023-02-22T07:27:38;101391.13;;;8.46;100.00
54248;BME280;40161;39.768;2.722;2023-02-22T07:30:21;101388.88;;;8.48;100.00
54248;BME280;40161;39.768;2.722;2023-02-22T07:32:53;101395.59;;;8.71;100.00
54248;BME280;40161;39.768;2.722;2023-02-22T07:35:25;101396.97;;;8.77;100.00
54248;BME280;40161;39.768;2.722;2023-02-22T07:37:51;101409.28;;;8.71;100.00
54248;BME280;40161;39.768;2.722;2023-02-22T07:40:18;101404.63;;;8.84;100.00
54248;BME280;40161;39.768;2.722;2023-02-22T07:43:01;101393.78;;;8.88;100.00
54248;BME280;40161;39.768;2.722;2023-02-22T07:45:33;101401.34;;;8.91;100.00
54248;BME280;40161;39.768;2.722;2023-02-22T07:48:01;101407.41;;;8.96;100.00
54248;BME280;40161;39.768;2.722;2023-02-22T07:50:29;101400.72;;;8.73;100.00
54248;BME280;40161;39.768;2.722;2023-02-22T07:52:57;101399.22;;;9.09;100.00
54248;BME280;40161;39.768;2.722;2023-02-22T07:55:27;101410.09;;;9.30;100.00
54248;BME280;40161;39.768;2.722;2023-02-22T07:57:56;101406.44;;;9.38;100.00
54248;BME280;40161;39.768;2.722;2023-02-22T08:00:38;101416.81;;;9.32;100.00
54248;BME280;40161;39.768;2.722;2023-02-22T08:03:10;101418.31;;;9.30;100.00
54248;BME280;40161;39.768;2.722;2023-02-22T08:05:38;101414.44;;;9.31;100.00
54248;BME280;40161;39.768;2.722;2023-02-22T08:08:05;101418.66;;;9.40;100.00
54248;BME280;40161;39.768;2.722;2023-02-22T08:10:31;101415.69;;;9.45;100.00
54248;BME280;40161;39.768;2.722;2023-02-22T08:12:57;101415.56;;;9.42;100.00
54248;BME280;40161;39.768;2.722;2023-02-22T08:17:49;101370.00;;;9.00;100.00
54248;BME280;40161;39.768;2.722;2023-02-22T08:20:15;101442.44;;;9.73;100.00
54248;BME280;40161;39.768;2.722;2023-02-22T08:22:44;101430.09;;;9.91;100.00
54248;BME280;40161;39.768;2.722;2023-02-22T08:25:11;101432.00;;;9.91;100.00
54248;BME280;40161;39.768;2.722;2023-02-22T08:27:37;101431.44;;;9.97;100.00
54248;BME280;40161;39.768;2.722;2023-02-22T08:30:03;101442.84;;;10.24;100.00
54248;BME280;40161;39.768;2.722;2023-02-22T08:32:29;101432.91;;;10.19;100.00
54248;BME280;40161;39.768;2.722;2023-02-22T08:34:54;101440.44;;;10.22;100.00
54248;BME280;40161;39.768;2.722;2023-02-22T08:37:20;101445.13;;;10.22;100.00
54248;BME280;40161;39.768;2.722;2023-02-22T08:39:46;101432.44;;;10.17;100.00
54248;BME280;40161;39.768;2.722;2023-02-22T08:42:11;101437.38;;;10.12;100.00
54248;BME280;40161;39.768;2.722;2023-02-22T08:44:38;101452.34;;;10.14;100.00
54248;BME280;40161;39.768;2.722;2023-02-22T08:47:04;101440.09;;;10.24;100.00
54248;BME280;40161;39.768;2.722;2023-02-22T08:49:30;101432.47;;;10.30;100.00
54248;BME280;40161;39.768;2.722;2023-02-22T08:51:56;101435.06;;;10.38;100.00
54248;BME280;40161;39.768;2.722;2023-02-22T08:54:21;101439.41;;;10.39;100.00
54248;BME280;40161;39.768;2.722;2023-02-22T08:56:47;101418.75;;;10.30;100.00
54248;BME280;40161;39.768;2.722;2023-02-22T08:59:14;101439.63;;;10.47;100.00
54248;BME280;40161;39.768;2.722;2023-02-22T09:01:39;101435.03;;;10.51;100.00
54248;BME280;40161;39.768;2.722;2023-02-22T09:04:05;101429.94;;;10.65;100.00
54248;BME280;40161;39.768;2.722;2023-02-22T09:06:30;101415.13;;;10.82;100.00
54248;BME280;40161;39.768;2.722;2023-02-22T09:08:56;101415.59;;;11.00;100.00
54248;BME280;40161;39.768;2.722;2023-02-22T09:11:22;101415.97;;;11.14;100.00
54248;BME280;40161;39.768;2.722;2023-02-22T09:13:47;101407.91;;;11.21;100.00
54248;BME280;40161;39.768;2.722;2023-02-22T09:16:13;101419.34;;;11.55;100.00
54248;BME280;40161;39.768;2.722;2023-02-22T09:18:40;101425.44;;;11.80;100.00
54248;BME280;40161;39.768;2.722;2023-02-22T09:21:06;101421.59;;;12.00;100.00
54248;BME280;40161;39.768;2.722;2023-02-22T09:23:36;101404.84;;;12.05;99.91
54248;BME280;40161;39.768;2.722;2023-02-22T09:26:01;101421.94;;;12.34;100.00
54248;BME280;40161;39.768;2.722;2023-02-22T09:28:27;101413.19;;;12.48;99.55
54248;BME280;40161;39.768;2.722;2023-02-22T09:30:52;101415.28;;;12.54;98.46
54248;BME280;40161;39.768;2.722;2023-02-22T09:33:19;101425.06;;;12.91;97.58
54248;BME280;40161;39.768;2.722;2023-02-22T09:35:47;101430.16;;;13.12;97.13
54248;BME280;40161;39.768;2.722;2023-02-22T09:38:19;101429.34;;;13.30;96.52
54248;BME280;40161;39.768;2.722;2023-02-22T09:40:53;101437.28;;;13.59;96.54
54248;BME280;40161;39.768;2.722;2023-02-22T09:43:47;101439.28;;;13.85;95.45
54248;BME280;40161;39.768;2.722;2023-02-22T09:46:35;101433.28;;;13.79;92.05
54248;BME280;40161;39.768;2.722;2023-02-22T09:49:23;101443.47;;;14.01;92.47
54248;BME280;40161;39.768;2.722;2023-02-22T09:52:07;101436.84;;;14.06;90.95
54248;BME280;40161;39.768;2.722;2023-02-22T09:54:45;101445.66;;;14.15;91.76
54248;BME280;40161;39.768;2.722;2023-02-22T09:57:20;101450.03;;;14.20;91.00
54248;BME280;40161;39.768;2.722;2023-02-22T10:00:12;101447.81;;;14.29;90.13
54248;BME280;40161;39.768;2.722;2023-02-22T10:05:33;101446.78;;;14.41;87.54
54248;BME280;40161;39.768;2.722;2023-02-22T10:08:03;101439.81;;;14.51;87.53
54248;BME280;40161;39.768;2.722;2023-02-22T10:10:36;101439.03;;;14.50;86.12
54248;BME280;40161;39.768;2.722;2023-02-22T10:13:17;101447.50;;;14.64;86.40
54248;BME280;40161;39.768;2.722;2023-02-22T10:26:29;101432.06;;;14.93;84.16
54248;BME280;40161;39.768;2.722;2023-02-22T10:29:24;101379.00;;;14.47;84.08
54248;BME280;40161;39.768;2.722;2023-02-22T10:31:59;101430.28;;;14.78;84.64
54248;BME280;40161;39.768;2.722;2023-02-22T10:34:29;101426.25;;;14.72;82.73
54248;BME280;40161;39.768;2.722;2023-02-22T10:39:52;101434.47;;;14.99;82.45
54248;BME280;40161;39.768;2.722;2023-02-22T10:42:24;101427.75;;;15.00;82.03
54248;BME280;40161;39.768;2.722;2023-02-22T10:44:50;101355.19;;;14.69;81.96
54248;BME280;40161;39.768;2.722;2023-02-22T10:47:17;101412.81;;;15.04;80.16
54248;BME280;40161;39.768;2.722;2023-02-22T10:49:58;101410.53;;;15.17;80.68
54248;BME280;40161;39.768;2.722;2023-02-22T10:52:32;101412.22;;;15.25;81.27
54248;BME280;40161;39.768;2.722;2023-02-22T10:55:00;101400.91;;;15.00;81.54
54248;BME280;40161;39.768;2.722;2023-02-22T10:57:34;101406.84;;;15.43;78.02
54248;BME280;40161;39.768;2.722;2023-02-22T11:00:15;101394.22;;;15.46;77.29
54248;BME280;40161;39.768;2.722;2023-02-22T11:02:52;101391.06;;;15.47;77.25
54248;BME280;40161;39.768;2.722;2023-02-22T11:05:32;101399.06;;;15.59;76.70
54248;BME280;40161;39.768;2.722;2023-02-22T11:10:51;101396.81;;;15.76;75.95
54248;BME280;40161;39.768;2.722;2023-02-22T11:15:50;101388.03;;;15.63;78.74
54248;BME280;40161;39.768;2.722;2023-02-22T11:18:29;101395.84;;;15.54;80.95
54248;BME280;40161;39.768;2.722;2023-02-22T11:21:01;101402.66;;;15.63;81.65
54248;BME280;40161;39.768;2.722;2023-02-22T11:23:27;101391.00;;;15.40;81.67
54248;BME280;40161;39.768;2.722;2023-02-22T11:26:09;101408.84;;;15.46;82.95
54248;BME280;40161;39.768;2.722;2023-02-22T11:28:42;101409.22;;;15.48;84.05
54248;BME280;40161;39.768;2.722;2023-02-22T11:33:52;101403.13;;;15.69;84.04
54248;BME280;40161;39.768;2.722;2023-02-22T11:36:40;101400.13;;;15.44;85.56
54248;BME280;40161;39.768;2.722;2023-02-22T11:39:29;101403.16;;;15.28;87.40
54248;BME280;40161;39.768;2.722;2023-02-22T11:42:22;101405.09;;;15.28;85.04
54248;BME280;40161;39.768;2.722;2023-02-22T11:45:25;101392.59;;;15.00;87.84
54248;BME280;40161;39.768;2.722;2023-02-22T11:48:18;101391.78;;;14.96;89.43
54248;BME280;40161;39.768;2.722;2023-02-22T11:50:54;101389.72;;;14.86;89.05
54248;BME280;40161;39.768;2.722;2023-02-22T11:56:20;101371.59;;;14.88;90.76
54248;BME280;40161;39.768;2.722;2023-02-22T11:59:05;101351.25;;;15.07;89.54
54248;BME280;40161;39.768;2.722;2023-02-22T12:01:46;101354.34;;;15.50;87.65
54248;BME280;40161;39.768;2.722;2023-02-22T12:13:24;101333.53;;;15.67;86.07
54248;BME280;40161;39.768;2.722;2023-02-22T12:21:30;101323.25;;;15.12;88.29
54248;BME280;40161;39.768;2.722;2023-02-22T12:24:04;101337.81;;;15.09;88.18
54248;BME280;40161;39.768;2.722;2023-02-22T12:26:48;101339.13;;;15.23;88.68
54248;BME280;40161;39.768;2.722;2023-02-22T12:32:02;101319.97;;;15.55;86.93
54248;BME280;40161;39.768;2.722;2023-02-22T12:34:36;101302.63;;;15.58;86.42
54248;BME280;40161;39.768;2.722;2023-02-22T12:45:34;101299.78;;;15.47;88.01
54248;BME280;40161;39.768;2.722;2023-02-22T12:48:04;101300.94;;;15.42;87.84
54248;BME280;40161;39.768;2.722;2023-02-22T12:50:33;101283.88;;;15.30;87.59
54248;BME280;40161;39.768;2.722;2023-02-22T12:53:17;101293.00;;;15.37;88.86
54248;BME280;40161;39.768;2.722;2023-02-22T12:55:50;101291.00;;;15.34;88.77
54248;BME280;40161;39.768;2.722;2023-02-22T12:58:38;101289.13;;;15.46;87.94
54248;BME280;40161;39.768;2.722;2023-02-22T13:01:17;101282.47;;;15.57;86.70
54248;BME280;40161;39.768;2.722;2023-02-22T13:03:46;101293.25;;;15.73;86.46
54248;BME280;40161;39.768;2.722;2023-02-22T13:12:21;101296.38;;;15.68;85.73
54248;BME280;40161;39.768;2.722;2023-02-22T13:26:36;101281.22;;;15.51;89.13
54248;BME280;40161;39.768;2.722;2023-02-22T13:29:22;101279.34;;;15.62;89.88
54248;BME280;40161;39.768;2.722;2023-02-22T13:37:54;101275.88;;;15.73;86.62
54248;BME280;40161;39.768;2.722;2023-02-22T13:51:55;101253.50;;;15.40;88.75
54248;BME280;40161;39.768;2.722;2023-02-22T13:54:48;101253.59;;;15.55;88.12
54248;BME280;40161;39.768;2.722;2023-02-22T13:57:25;101241.88;;;15.79;87.64
54248;BME280;40161;39.768;2.722;2023-02-22T14:08:04;101233.28;;;16.06;83.72
54248;BME280;40161;39.768;2.722;2023-02-22T14:10:37;101235.25;;;16.05;85.43
54248;BME280;40161;39.768;2.722;2023-02-22T14:13:05;101244.34;;;16.09;85.75
54248;BME280;40161;39.768;2.722;2023-02-22T14:15:31;101246.28;;;15.87;86.44
54248;BME280;40161;39.768;2.722;2023-02-22T14:17:58;101249.41;;;15.86;87.08
54248;BME280;40161;39.768;2.722;2023-02-22T14:20:34;101251.34;;;15.71;86.21
54248;BME280;40161;39.768;2.722;2023-02-22T14:23:53;101254.88;;;15.68;88.50
54248;BME280;40161;39.768;2.722;2023-02-22T14:31:25;101255.84;;;15.31;90.58
54248;BME280;40161;39.768;2.722;2023-02-22T14:36:33;101255.59;;;15.58;89.20
54248;BME280;40161;39.768;2.722;2023-02-22T14:41:44;101247.56;;;15.31;89.53
54248;BME280;40161;39.768;2.722;2023-02-22T14:44:12;101238.41;;;15.24;90.02
54248;BME280;40161;39.768;2.722;2023-02-22T14:46:43;101223.78;;;15.23;90.22
54248;BME280;40161;39.768;2.722;2023-02-22T14:49:16;101231.41;;;15.44;89.27
54248;BME280;40161;39.768;2.722;2023-02-22T14:51:59;101233.34;;;15.36;88.14
54248;BME280;40161;39.768;2.722;2023-02-22T14:55:27;101224.28;;;15.39;89.88
54248;BME280;40161;39.768;2.722;2023-02-22T15:00:19;101233.34;;;15.36;89.58
54248;BME280;40161;39.768;2.722;2023-02-22T15:02:49;101236.91;;;15.40;89.17
54248;BME280;40161;39.768;2.722;2023-02-22T15:05:17;101237.69;;;15.37;89.43
54248;BME280;40161;39.768;2.722;2023-02-22T15:07:54;101215.94;;;15.29;89.00
54248;BME280;40161;39.768;2.722;2023-02-22T15:10:29;101243.59;;;15.32;90.72
54248;BME280;40161;39.768;2.722;2023-02-22T15:12:59;101233.69;;;15.28;89.27
54248;BME280;40161;39.768;2.722;2023-02-22T15:15:36;101247.16;;;15.33;89.29
54248;BME280;40161;39.768;2.722;2023-02-22T15:18:03;101241.19;;;15.31;89.46
54248;BME280;40161;39.768;2.722;2023-02-22T15:20:35;101251.75;;;15.11;90.52
54248;BME280;40161;39.768;2.722;2023-02-22T15:23:03;101258.78;;;15.01;91.48
54248;BME280;40161;39.768;2.722;2023-02-22T15:25:29;101236.84;;;14.71;94.13
54248;BME280;40161;39.768;2.722;2023-02-22T15:28:00;101258.19;;;14.78;93.19